sensor_id;sensor_type;location;lat;lon;timestamp;P1;durP1;ratioP1;P2;durP2;ratioP2
60999;SDS011;46879;45.658;11.814;2023-04-03T00:04:48;5.38;;;2.35;;
60999;SDS011;46879;45.658;11.814;2023-04-03T00:09:48;8.32;;;2.45;;
60999;SDS011;46879;45.658;11.814;2023-04-03T00:14:49;3.97;;;2.10;;
60999;SDS011;46879;45.658;11.814;2023-04-03T00:19:49;5.43;;;2.75;;
60999;SDS011;46879;45.658;11.814;2023-04-03T00:24:50;5.68;;;2.45;;
60999;SDS011;46879;45.658;11.814;2023-04-03T00:29:51;5.43;;;1.98;;
60999;SDS011;46879;45.658;11.814;2023-04-03T00:34:51;3.63;;;2.20;;
60999;SDS011;46879;45.658;11.814;2023-04-03T00:39:52;2.47;;;2.03;;
60999;SDS011;46879;45.658;11.814;2023-04-03T00:49:56;3.67;;;1.88;;
60999;SDS011;46879;45.658;11.814;2023-04-03T00:54:59;2.97;;;2.00;;
60999;SDS011;46879;45.658;11.814;2023-04-03T01:00:09;5.20;;;2.30;;
60999;SDS011;46879;45.658;11.814;2023-04-03T01:05:14;3.90;;;1.88;;
60999;SDS011;46879;45.658;11.814;2023-04-03T01:10:16;4.60;;;2.55;;
60999;SDS011;46879;45.658;11.814;2023-04-03T01:15:21;5.57;;;2.00;;
60999;SDS011;46879;45.658;11.814;2023-04-03T01:25:28;3.17;;;2.13;;
60999;SDS011;46879;45.658;11.814;2023-04-03T01:30:34;3.97;;;2.00;;
60999;SDS011;46879;45.658;11.814;2023-04-03T01:35:53;2.67;;;2.10;;
60999;SDS011;46879;45.658;11.814;2023-04-03T01:40:54;2.90;;;2.35;;
60999;SDS011;46879;45.658;11.814;2023-04-03T01:45:55;2.92;;;1.92;;
60999;SDS011;46879;45.658;11.814;2023-04-03T01:50:55;6.20;;;2.10;;
60999;SDS011;46879;45.658;11.814;2023-04-03T01:55:56;3.05;;;2.00;;
60999;SDS011;46879;45.658;11.814;2023-04-03T02:00:57;3.75;;;2.05;;
60999;SDS011;46879;45.658;11.814;2023-04-03T02:05:57;6.10;;;2.53;;
60999;SDS011;46879;45.658;11.814;2023-04-03T02:10:58;2.75;;;1.90;;
60999;SDS011;46879;45.658;11.814;2023-04-03T02:15:59;2.90;;;1.98;;
60999;SDS011;46879;45.658;11.814;2023-04-03T02:21:05;2.88;;;1.83;;
60999;SDS011;46879;45.658;11.814;2023-04-03T02:26:10;3.33;;;1.88;;
60999;SDS011;46879;45.658;11.814;2023-04-03T02:31:13;2.95;;;2.20;;
60999;SDS011;46879;45.658;11.814;2023-04-03T02:36:14;2.40;;;1.90;;
60999;SDS011;46879;45.658;11.814;2023-04-03T02:41:15;2.47;;;1.80;;
60999;SDS011;46879;45.658;11.814;2023-04-03T02:46:15;2.95;;;1.90;;
60999;SDS011;46879;45.658;11.814;2023-04-03T02:51:16;2.10;;;1.60;;
60999;SDS011;46879;45.658;11.814;2023-04-03T02:56:17;2.65;;;1.70;;
60999;SDS011;46879;45.658;11.814;2023-04-03T03:01:19;3.03;;;1.70;;
60999;SDS011;46879;45.658;11.814;2023-04-03T03:06:19;3.58;;;1.85;;
60999;SDS011;46879;45.658;11.814;2023-04-03T03:11:20;3.25;;;1.92;;
60999;SDS011;46879;45.658;11.814;2023-04-03T03:16:21;2.05;;;1.77;;
60999;SDS011;46879;45.658;11.814;2023-04-03T03:21:21;2.38;;;1.52;;
60999;SDS011;46879;45.658;11.814;2023-04-03T03:26:22;2.25;;;1.75;;
60999;SDS011;46879;45.658;11.814;2023-04-03T03:31:22;2.72;;;1.65;;
60999;SDS011;46879;45.658;11.814;2023-04-03T03:36:23;2.47;;;1.83;;
60999;SDS011;46879;45.658;11.814;2023-04-03T03:41:23;2.10;;;1.67;;
60999;SDS011;46879;45.658;11.814;2023-04-03T03:46:24;2.47;;;1.60;;
60999;SDS011;46879;45.658;11.814;2023-04-03T03:51:25;5.95;;;2.47;;
60999;SDS011;46879;45.658;11.814;2023-04-03T03:56:25;3.75;;;1.60;;
60999;SDS011;46879;45.658;11.814;2023-04-03T04:01:26;1.90;;;1.70;;
60999;SDS011;46879;45.658;11.814;2023-04-03T04:06:27;2.67;;;1.80;;
60999;SDS011;46879;45.658;11.814;2023-04-03T04:11:27;2.22;;;1.55;;
60999;SDS011;46879;45.658;11.814;2023-04-03T04:16:28;2.10;;;1.63;;
60999;SDS011;46879;45.658;11.814;2023-04-03T04:21:28;1.50;;;1.40;;
60999;SDS011;46879;45.658;11.814;2023-04-03T04:26:29;2.72;;;1.70;;
60999;SDS011;46879;45.658;11.814;2023-04-03T04:31:29;2.28;;;1.60;;
60999;SDS011;46879;45.658;11.814;2023-04-03T04:36:30;2.53;;;1.60;;
60999;SDS011;46879;45.658;11.814;2023-04-03T04:41:31;2.33;;;1.85;;
60999;SDS011;46879;45.658;11.814;2023-04-03T04:46:31;1.92;;;1.65;;
60999;SDS011;46879;45.658;11.814;2023-04-03T04:51:32;3.70;;;1.55;;
60999;SDS011;46879;45.658;11.814;2023-04-03T04:56:32;1.52;;;1.42;;
60999;SDS011;46879;45.658;11.814;2023-04-03T05:01:33;1.55;;;1.45;;
60999;SDS011;46879;45.658;11.814;2023-04-03T05:06:33;4.03;;;1.80;;
60999;SDS011;46879;45.658;11.814;2023-04-03T05:11:35;2.33;;;1.65;;
60999;SDS011;46879;45.658;11.814;2023-04-03T05:16:35;1.33;;;1.23;;
60999;SDS011;46879;45.658;11.814;2023-04-03T05:21:36;1.88;;;1.42;;
60999;SDS011;46879;45.658;11.814;2023-04-03T05:26:37;2.60;;;1.70;;
60999;SDS011;46879;45.658;11.814;2023-04-03T05:31:38;3.67;;;1.48;;
60999;SDS011;46879;45.658;11.814;2023-04-03T05:36:38;1.85;;;1.45;;
60999;SDS011;46879;45.658;11.814;2023-04-03T05:41:39;5.57;;;1.75;;
60999;SDS011;46879;45.658;11.814;2023-04-03T05:46:40;8.63;;;1.40;;
60999;SDS011;46879;45.658;11.814;2023-04-03T05:51:41;6.45;;;1.63;;
60999;SDS011;46879;45.658;11.814;2023-04-03T05:56:42;2.50;;;1.75;;
60999;SDS011;46879;45.658;11.814;2023-04-03T06:01:42;9.98;;;1.80;;
60999;SDS011;46879;45.658;11.814;2023-04-03T06:06:48;6.47;;;1.75;;
60999;SDS011;46879;45.658;11.814;2023-04-03T06:11:51;6.55;;;2.38;;
60999;SDS011;46879;45.658;11.814;2023-04-03T06:16:53;16.48;;;2.47;;
60999;SDS011;46879;45.658;11.814;2023-04-03T06:21:54;8.02;;;2.33;;
60999;SDS011;46879;45.658;11.814;2023-04-03T06:26:54;4.80;;;2.22;;
60999;SDS011;46879;45.658;11.814;2023-04-03T06:31:55;5.85;;;2.08;;
60999;SDS011;46879;45.658;11.814;2023-04-03T06:36:56;8.10;;;2.22;;
60999;SDS011;46879;45.658;11.814;2023-04-03T06:41:57;6.95;;;2.65;;
60999;SDS011;46879;45.658;11.814;2023-04-03T06:46:57;8.95;;;2.58;;
60999;SDS011;46879;45.658;11.814;2023-04-03T06:51:58;8.82;;;2.55;;
60999;SDS011;46879;45.658;11.814;2023-04-03T06:56:58;10.13;;;2.28;;
60999;SDS011;46879;45.658;11.814;2023-04-03T07:01:59;3.97;;;2.38;;
60999;SDS011;46879;45.658;11.814;2023-04-03T07:07:00;10.18;;;2.17;;
60999;SDS011;46879;45.658;11.814;2023-04-03T07:12:01;5.75;;;1.92;;
60999;SDS011;46879;45.658;11.814;2023-04-03T07:17:01;8.13;;;2.15;;
60999;SDS011;46879;45.658;11.814;2023-04-03T07:22:02;4.30;;;2.10;;
60999;SDS011;46879;45.658;11.814;2023-04-03T07:27:03;3.40;;;1.90;;
60999;SDS011;46879;45.658;11.814;2023-04-03T07:32:04;1.90;;;1.67;;
60999;SDS011;46879;45.658;11.814;2023-04-03T07:37:06;2.00;;;1.63;;
60999;SDS011;46879;45.658;11.814;2023-04-03T07:42:08;4.68;;;2.03;;
60999;SDS011;46879;45.658;11.814;2023-04-03T07:47:10;4.82;;;2.00;;
60999;SDS011;46879;45.658;11.814;2023-04-03T07:52:10;3.92;;;1.60;;
60999;SDS011;46879;45.658;11.814;2023-04-03T07:57:11;4.03;;;2.03;;
60999;SDS011;46879;45.658;11.814;2023-04-03T08:02:12;3.20;;;1.80;;
60999;SDS011;46879;45.658;11.814;2023-04-03T08:07:12;5.07;;;1.90;;
60999;SDS011;46879;45.658;11.814;2023-04-03T08:12:13;3.60;;;2.00;;
60999;SDS011;46879;45.658;11.814;2023-04-03T08:17:14;5.07;;;1.70;;
60999;SDS011;46879;45.658;11.814;2023-04-03T08:22:15;6.30;;;1.73;;
60999;SDS011;46879;45.658;11.814;2023-04-03T08:27:16;9.52;;;2.30;;
60999;SDS011;46879;45.658;11.814;2023-04-03T08:32:16;5.45;;;2.13;;
60999;SDS011;46879;45.658;11.814;2023-04-03T08:37:17;7.43;;;2.22;;
60999;SDS011;46879;45.658;11.814;2023-04-03T08:42:36;3.70;;;1.80;;
60999;SDS011;46879;45.658;11.814;2023-04-03T08:53:12;3.00;;;1.77;;
60999;SDS011;46879;45.658;11.814;2023-04-03T08:58:30;5.30;;;1.80;;
60999;SDS011;46879;45.658;11.814;2023-04-03T09:03:38;5.20;;;2.00;;
60999;SDS011;46879;45.658;11.814;2023-04-03T09:08:49;2.92;;;1.80;;
60999;SDS011;46879;45.658;11.814;2023-04-03T09:19:41;3.58;;;1.75;;
60999;SDS011;46879;45.658;11.814;2023-04-03T09:25:29;4.72;;;1.92;;
60999;SDS011;46879;45.658;11.814;2023-04-03T09:30:34;2.72;;;1.63;;
60999;SDS011;46879;45.658;11.814;2023-04-03T09:35:37;4.60;;;1.42;;
60999;SDS011;46879;45.658;11.814;2023-04-03T09:40:48;3.58;;;1.60;;
60999;SDS011;46879;45.658;11.814;2023-04-03T09:46:16;6.13;;;1.75;;
60999;SDS011;46879;45.658;11.814;2023-04-03T09:51:25;2.90;;;1.63;;
60999;SDS011;46879;45.658;11.814;2023-04-03T09:56:28;3.33;;;1.73;;
60999;SDS011;46879;45.658;11.814;2023-04-03T10:01:33;2.28;;;1.48;;
60999;SDS011;46879;45.658;11.814;2023-04-03T10:22:12;3.25;;;1.90;;
60999;SDS011;46879;45.658;11.814;2023-04-03T10:50:20;1.52;;;1.42;;
60999;SDS011;46879;45.658;11.814;2023-04-03T11:00:53;3.88;;;1.40;;
60999;SDS011;46879;45.658;11.814;2023-04-03T11:06:01;2.13;;;1.73;;
60999;SDS011;46879;45.658;11.814;2023-04-03T11:11:12;3.78;;;1.70;;
60999;SDS011;46879;45.658;11.814;2023-04-03T11:16:24;2.15;;;1.63;;
60999;SDS011;46879;45.658;11.814;2023-04-03T11:26:38;2.75;;;1.42;;
60999;SDS011;46879;45.658;11.814;2023-04-03T11:36:58;2.47;;;1.50;;
60999;SDS011;46879;45.658;11.814;2023-04-03T12:02:58;2.17;;;1.58;;
60999;SDS011;46879;45.658;11.814;2023-04-03T12:08:23;1.48;;;1.38;;
60999;SDS011;46879;45.658;11.814;2023-04-03T12:13:29;6.78;;;1.50;;
60999;SDS011;46879;45.658;11.814;2023-04-03T12:18:31;2.90;;;1.50;;
60999;SDS011;46879;45.658;11.814;2023-04-03T12:29:17;4.57;;;1.70;;
60999;SDS011;46879;45.658;11.814;2023-04-03T12:51:06;4.28;;;1.75;;
60999;SDS011;46879;45.658;11.814;2023-04-03T13:01:21;3.00;;;1.75;;
60999;SDS011;46879;45.658;11.814;2023-04-03T13:06:32;2.03;;;1.52;;
60999;SDS011;46879;45.658;11.814;2023-04-03T13:11:42;3.33;;;1.90;;
60999;SDS011;46879;45.658;11.814;2023-04-03T13:16:57;5.90;;;1.58;;
60999;SDS011;46879;45.658;11.814;2023-04-03T13:22:24;3.45;;;1.55;;
60999;SDS011;46879;45.658;11.814;2023-04-03T13:27:33;2.30;;;1.70;;
60999;SDS011;46879;45.658;11.814;2023-04-03T13:32:33;2.92;;;1.83;;
60999;SDS011;46879;45.658;11.814;2023-04-03T13:37:34;3.40;;;1.45;;
60999;SDS011;46879;45.658;11.814;2023-04-03T13:42:36;2.17;;;1.52;;
60999;SDS011;46879;45.658;11.814;2023-04-03T13:47:42;1.85;;;1.60;;
60999;SDS011;46879;45.658;11.814;2023-04-03T13:52:46;5.38;;;2.05;;
60999;SDS011;46879;45.658;11.814;2023-04-03T13:57:56;2.08;;;1.52;;
60999;SDS011;46879;45.658;11.814;2023-04-03T14:08:30;2.72;;;1.38;;
60999;SDS011;46879;45.658;11.814;2023-04-03T14:13:31;8.93;;;1.73;;
60999;SDS011;46879;45.658;11.814;2023-04-03T14:18:32;2.50;;;1.63;;
60999;SDS011;46879;45.658;11.814;2023-04-03T14:23:32;4.35;;;2.03;;
60999;SDS011;46879;45.658;11.814;2023-04-03T14:28:33;2.45;;;1.48;;
60999;SDS011;46879;45.658;11.814;2023-04-03T14:33:34;2.60;;;1.55;;
60999;SDS011;46879;45.658;11.814;2023-04-03T14:38:35;3.80;;;1.90;;
60999;SDS011;46879;45.658;11.814;2023-04-03T14:43:36;1.95;;;1.50;;
60999;SDS011;46879;45.658;11.814;2023-04-03T14:48:37;2.17;;;1.73;;
60999;SDS011;46879;45.658;11.814;2023-04-03T14:53:37;1.80;;;1.33;;
60999;SDS011;46879;45.658;11.814;2023-04-03T14:58:41;3.30;;;1.63;;
60999;SDS011;46879;45.658;11.814;2023-04-03T15:03:43;1.73;;;1.20;;
60999;SDS011;46879;45.658;11.814;2023-04-03T15:08:45;1.50;;;1.38;;
60999;SDS011;46879;45.658;11.814;2023-04-03T15:13:48;5.55;;;1.75;;
60999;SDS011;46879;45.658;11.814;2023-04-03T15:18:49;2.33;;;1.50;;
60999;SDS011;46879;45.658;11.814;2023-04-03T15:23:51;2.03;;;1.50;;
60999;SDS011;46879;45.658;11.814;2023-04-03T15:28:53;1.83;;;1.42;;
60999;SDS011;46879;45.658;11.814;2023-04-03T15:33:55;2.42;;;1.63;;
60999;SDS011;46879;45.658;11.814;2023-04-03T15:38:56;1.30;;;1.20;;
60999;SDS011;46879;45.658;11.814;2023-04-03T15:43:57;1.75;;;1.30;;
60999;SDS011;46879;45.658;11.814;2023-04-03T15:48:59;1.55;;;1.45;;
60999;SDS011;46879;45.658;11.814;2023-04-03T15:54:02;5.03;;;1.70;;
60999;SDS011;46879;45.658;11.814;2023-04-03T15:59:04;5.00;;;1.50;;
60999;SDS011;46879;45.658;11.814;2023-04-03T16:04:07;2.33;;;1.30;;
60999;SDS011;46879;45.658;11.814;2023-04-03T16:09:10;1.75;;;1.40;;
60999;SDS011;46879;45.658;11.814;2023-04-03T16:14:12;1.42;;;1.33;;
60999;SDS011;46879;45.658;11.814;2023-04-03T16:19:14;3.33;;;1.73;;
60999;SDS011;46879;45.658;11.814;2023-04-03T16:24:16;2.72;;;1.52;;
60999;SDS011;46879;45.658;11.814;2023-04-03T16:29:17;2.85;;;1.65;;
60999;SDS011;46879;45.658;11.814;2023-04-03T16:34:19;1.30;;;1.20;;
60999;SDS011;46879;45.658;11.814;2023-04-03T16:39:21;2.35;;;1.67;;
60999;SDS011;46879;45.658;11.814;2023-04-03T16:44:23;2.38;;;1.30;;
60999;SDS011;46879;45.658;11.814;2023-04-03T16:49:24;1.42;;;1.27;;
60999;SDS011;46879;45.658;11.814;2023-04-03T16:54:30;2.03;;;1.67;;
60999;SDS011;46879;45.658;11.814;2023-04-03T16:59:33;3.08;;;1.70;;
60999;SDS011;46879;45.658;11.814;2023-04-03T17:04:36;2.42;;;1.52;;
60999;SDS011;46879;45.658;11.814;2023-04-03T17:09:37;1.60;;;1.50;;
60999;SDS011;46879;45.658;11.814;2023-04-03T17:14:39;2.08;;;1.60;;
60999;SDS011;46879;45.658;11.814;2023-04-03T17:19:42;2.28;;;1.60;;
60999;SDS011;46879;45.658;11.814;2023-04-03T17:24:44;5.80;;;1.80;;
60999;SDS011;46879;45.658;11.814;2023-04-03T17:29:46;3.47;;;1.50;;
60999;SDS011;46879;45.658;11.814;2023-04-03T17:34:47;3.20;;;1.73;;
60999;SDS011;46879;45.658;11.814;2023-04-03T17:39:49;3.15;;;1.83;;
60999;SDS011;46879;45.658;11.814;2023-04-03T17:44:51;3.88;;;2.33;;
60999;SDS011;46879;45.658;11.814;2023-04-03T17:49:52;5.47;;;2.20;;
60999;SDS011;46879;45.658;11.814;2023-04-03T17:54:54;5.07;;;2.85;;
60999;SDS011;46879;45.658;11.814;2023-04-03T17:59:56;4.70;;;3.20;;
60999;SDS011;46879;45.658;11.814;2023-04-03T18:04:57;3.92;;;2.70;;
60999;SDS011;46879;45.658;11.814;2023-04-03T18:09:59;5.53;;;2.97;;
60999;SDS011;46879;45.658;11.814;2023-04-03T18:15:04;4.03;;;3.20;;
60999;SDS011;46879;45.658;11.814;2023-04-03T18:20:07;4.90;;;3.15;;
60999;SDS011;46879;45.658;11.814;2023-04-03T18:25:10;4.60;;;3.70;;
60999;SDS011;46879;45.658;11.814;2023-04-03T18:30:14;7.25;;;4.80;;
60999;SDS011;46879;45.658;11.814;2023-04-03T18:35:16;6.93;;;4.50;;
60999;SDS011;46879;45.658;11.814;2023-04-03T18:40:18;9.85;;;4.40;;
60999;SDS011;46879;45.658;11.814;2023-04-03T18:45:20;5.82;;;4.55;;
60999;SDS011;46879;45.658;11.814;2023-04-03T18:50:22;5.88;;;4.20;;
60999;SDS011;46879;45.658;11.814;2023-04-03T18:55:24;5.25;;;4.20;;
60999;SDS011;46879;45.658;11.814;2023-04-03T19:00:26;5.45;;;3.92;;
60999;SDS011;46879;45.658;11.814;2023-04-03T19:05:28;6.03;;;4.25;;
60999;SDS011;46879;45.658;11.814;2023-04-03T19:10:31;7.80;;;4.40;;
60999;SDS011;46879;45.658;11.814;2023-04-03T19:15:33;7.00;;;4.32;;
60999;SDS011;46879;45.658;11.814;2023-04-03T19:20:33;9.55;;;4.43;;
60999;SDS011;46879;45.658;11.814;2023-04-03T19:25:35;5.10;;;3.65;;
60999;SDS011;46879;45.658;11.814;2023-04-03T19:30:37;6.75;;;4.13;;
60999;SDS011;46879;45.658;11.814;2023-04-03T19:35:39;6.68;;;3.65;;
60999;SDS011;46879;45.658;11.814;2023-04-03T19:40:40;7.30;;;3.97;;
60999;SDS011;46879;45.658;11.814;2023-04-03T19:45:45;8.02;;;4.15;;
60999;SDS011;46879;45.658;11.814;2023-04-03T19:50:46;9.40;;;3.40;;
60999;SDS011;46879;45.658;11.814;2023-04-03T19:55:48;7.70;;;3.28;;
60999;SDS011;46879;45.658;11.814;2023-04-03T20:00:50;5.63;;;3.00;;
60999;SDS011;46879;45.658;11.814;2023-04-03T20:05:53;4.00;;;2.55;;
60999;SDS011;46879;45.658;11.814;2023-04-03T20:10:56;4.15;;;2.92;;
60999;SDS011;46879;45.658;11.814;2023-04-03T20:16:03;11.60;;;2.70;;
60999;SDS011;46879;45.658;11.814;2023-04-03T20:21:06;3.95;;;2.50;;
60999;SDS011;46879;45.658;11.814;2023-04-03T20:26:10;6.93;;;2.67;;
60999;SDS011;46879;45.658;11.814;2023-04-03T20:31:23;4.82;;;2.35;;
60999;SDS011;46879;45.658;11.814;2023-04-03T20:36:28;3.88;;;2.50;;
60999;SDS011;46879;45.658;11.814;2023-04-03T20:41:30;3.90;;;2.13;;
60999;SDS011;46879;45.658;11.814;2023-04-03T20:46:34;2.83;;;2.00;;
60999;SDS011;46879;45.658;11.814;2023-04-03T20:51:36;8.48;;;2.58;;
60999;SDS011;46879;45.658;11.814;2023-04-03T20:56:38;13.70;;;3.75;;
60999;SDS011;46879;45.658;11.814;2023-04-03T21:01:40;11.52;;;2.65;;
60999;SDS011;46879;45.658;11.814;2023-04-03T21:24:19;11.30;;;2.92;;
60999;SDS011;46879;45.658;11.814;2023-04-03T21:29:22;7.72;;;2.65;;
60999;SDS011;46879;45.658;11.814;2023-04-03T21:34:24;7.88;;;2.55;;
60999;SDS011;46879;45.658;11.814;2023-04-03T21:39:27;5.47;;;2.20;;
60999;SDS011;46879;45.658;11.814;2023-04-03T21:44:29;10.38;;;2.70;;
60999;SDS011;46879;45.658;11.814;2023-04-03T21:49:31;9.65;;;2.63;;
60999;SDS011;46879;45.658;11.814;2023-04-03T21:54:33;6.38;;;2.40;;
60999;SDS011;46879;45.658;11.814;2023-04-03T21:59:35;8.48;;;2.20;;
60999;SDS011;46879;45.658;11.814;2023-04-03T22:04:38;6.53;;;2.33;;
60999;SDS011;46879;45.658;11.814;2023-04-03T22:09:39;4.55;;;1.92;;
60999;SDS011;46879;45.658;11.814;2023-04-03T22:14:40;6.03;;;2.40;;
60999;SDS011;46879;45.658;11.814;2023-04-03T22:19:42;6.80;;;2.22;;
60999;SDS011;46879;45.658;11.814;2023-04-03T22:24:45;5.60;;;2.10;;
60999;SDS011;46879;45.658;11.814;2023-04-03T22:29:46;5.97;;;2.30;;
60999;SDS011;46879;45.658;11.814;2023-04-03T22:34:48;7.15;;;2.00;;
60999;SDS011;46879;45.658;11.814;2023-04-03T22:39:50;3.67;;;1.88;;
60999;SDS011;46879;45.658;11.814;2023-04-03T22:44:52;2.67;;;1.90;;
60999;SDS011;46879;45.658;11.814;2023-04-03T22:49:54;4.20;;;2.00;;
60999;SDS011;46879;45.658;11.814;2023-04-03T22:54:56;3.97;;;2.05;;
60999;SDS011;46879;45.658;11.814;2023-04-03T22:59:57;9.80;;;2.30;;
60999;SDS011;46879;45.658;11.814;2023-04-03T23:04:59;5.22;;;2.15;;
60999;SDS011;46879;45.658;11.814;2023-04-03T23:10:01;6.57;;;2.03;;
60999;SDS011;46879;45.658;11.814;2023-04-03T23:15:03;7.22;;;2.00;;
60999;SDS011;46879;45.658;11.814;2023-04-03T23:20:06;7.70;;;1.80;;
60999;SDS011;46879;45.658;11.814;2023-04-03T23:25:08;4.40;;;1.83;;
60999;SDS011;46879;45.658;11.814;2023-04-03T23:30:10;2.67;;;1.70;;
60999;SDS011;46879;45.658;11.814;2023-04-03T23:35:12;3.78;;;2.03;;
60999;SDS011;46879;45.658;11.814;2023-04-03T23:40:14;5.35;;;1.83;;
60999;SDS011;46879;45.658;11.814;2023-04-03T23:45:16;6.97;;;1.92;;
60999;SDS011;46879;45.658;11.814;2023-04-03T23:50:17;4.43;;;2.00;;
60999;SDS011;46879;45.658;11.814;2023-04-03T23:55:19;6.68;;;1.70;;
